createdAt,value
2017-10-29T00:00:27.287Z,88.20
2017-10-29T00:02:54.727Z,88.70
2017-10-29T00:05:22.224Z,88.80
2017-10-29T00:07:49.675Z,88.10
2017-10-29T00:10:17.143Z,88.40
2017-10-29T00:12:44.611Z,88.10
2017-10-29T00:15:12.063Z,88.10
2017-10-29T00:17:39.523Z,88.20
2017-10-29T00:20:06.967Z,88.00
2017-10-29T00:22:34.423Z,87.80
2017-10-29T00:25:01.875Z,88.10
2017-10-29T00:27:29.443Z,87.90
2017-10-29T00:29:57.004Z,87.40
2017-10-29T00:32:24.448Z,87.30
2017-10-29T00:34:51.908Z,87.30
2017-10-29T00:37:19.355Z,87.50
2017-10-29T00:39:46.832Z,87.30
2017-10-29T00:42:14.266Z,87.20
2017-10-29T00:44:41.696Z,87.00
2017-10-29T00:47:09.207Z,87.00
2017-10-29T00:49:36.656Z,86.90
2017-10-29T00:52:04.115Z,86.60
2017-10-29T00:54:31.555Z,86.40
2017-10-29T00:56:59.008Z,86.20
2017-10-29T00:59:26.447Z,86.00
2017-10-29T01:01:53.904Z,85.90
2017-10-29T01:04:21.343Z,85.80
2017-10-29T01:06:49.576Z,85.60
2017-10-29T01:09:17.030Z,85.50
2017-10-29T01:11:44.471Z,85.40
2017-10-29T01:14:11.943Z,85.30
2017-10-29T01:16:39.391Z,85.20
2017-10-29T01:19:06.847Z,85.10
2017-10-29T01:21:34.315Z,85.10
2017-10-29T01:24:01.756Z,84.90
2017-10-29T01:26:29.198Z,84.70
2017-10-29T01:28:56.637Z,85.00
2017-10-29T01:31:24.851Z,85.10
2017-10-29T01:33:52.307Z,85.10
2017-10-29T01:36:19.768Z,85.40
2017-10-29T01:38:47.216Z,85.60
2017-10-29T01:41:14.658Z,86.00
2017-10-29T01:43:42.152Z,86.30
2017-10-29T01:46:09.599Z,86.10
2017-10-29T01:48:37.055Z,86.00
2017-10-29T01:51:04.486Z,85.70
2017-10-29T01:53:31.935Z,85.40
2017-10-29T01:55:59.436Z,85.20
2017-10-29T01:58:26.879Z,85.30
2017-10-29T02:00:54.332Z,85.30
2017-10-29T02:03:21.764Z,85.20
2017-10-29T02:05:49.210Z,85.30
2017-10-29T02:08:16.651Z,85.20
2017-10-29T02:10:44.867Z,85.20
2017-10-29T02:13:12.300Z,85.10
2017-10-29T02:15:40.502Z,85.00
2017-10-29T02:18:07.961Z,84.90
2017-10-29T02:20:35.442Z,84.90
2017-10-29T02:23:02.899Z,84.80
2017-10-29T02:25:30.352Z,84.90
2017-10-29T02:27:58.835Z,85.00
2017-10-29T02:30:26.296Z,85.00
2017-10-29T02:32:53.737Z,85.20
2017-10-29T02:35:21.191Z,85.40
2017-10-29T02:37:48.624Z,85.50
2017-10-29T02:40:16.080Z,85.60
2017-10-29T02:42:43.516Z,86.20
2017-10-29T02:45:11.752Z,86.20
2017-10-29T02:47:39.196Z,86.10
2017-10-29T02:50:06.645Z,86.60
2017-10-29T02:52:34.122Z,86.30
2017-10-29T02:55:01.567Z,86.50
2017-10-29T02:57:29.041Z,86.70
2017-10-29T02:59:56.475Z,86.70
2017-10-29T03:02:23.934Z,87.10
2017-10-29T03:04:51.387Z,87.20
2017-10-29T03:07:18.823Z,87.20
2017-10-29T03:09:46.279Z,87.20
2017-10-29T03:12:13.707Z,87.40
2017-10-29T03:14:41.925Z,88.40
2017-10-29T03:17:09.353Z,87.60
2017-10-29T03:19:37.568Z,87.50
2017-10-29T03:22:05.039Z,87.40
2017-10-29T03:24:32.495Z,87.30
2017-10-29T03:27:00.058Z,87.70
2017-10-29T03:29:27.494Z,87.40
2017-10-29T03:31:54.972Z,87.40
2017-10-29T03:34:22.418Z,87.90
2017-10-29T03:36:49.876Z,87.70
2017-10-29T03:39:17.352Z,88.30
2017-10-29T03:41:44.785Z,88.70
2017-10-29T03:44:12.241Z,88.70
2017-10-29T03:46:39.714Z,88.50
2017-10-29T03:49:07.277Z,88.90
2017-10-29T03:51:34.717Z,88.80
2017-10-29T03:54:02.187Z,89.10
2017-10-29T03:56:29.630Z,88.90
2017-10-29T03:58:57.103Z,88.90
2017-10-29T04:01:24.555Z,89.20
2017-10-29T04:03:52.003Z,89.20
2017-10-29T04:06:19.457Z,88.80
2017-10-29T04:08:46.916Z,88.80
2017-10-29T04:11:14.380Z,88.90
2017-10-29T04:13:41.821Z,89.10
2017-10-29T04:16:09.255Z,89.30
2017-10-29T04:18:36.707Z,88.70
2017-10-29T04:21:04.918Z,88.50
2017-10-29T04:23:32.371Z,88.50
2017-10-29T04:25:59.819Z,88.40
2017-10-29T04:28:27.288Z,88.50
2017-10-29T04:30:54.723Z,88.90
2017-10-29T04:33:22.162Z,89.10
2017-10-29T04:35:50.376Z,89.00
2017-10-29T04:38:17.833Z,89.00
2017-10-29T04:40:45.288Z,89.30
2017-10-29T04:43:12.744Z,88.90
2017-10-29T04:45:40.223Z,88.90
2017-10-29T04:48:07.687Z,88.70
2017-10-29T04:50:35.110Z,88.30
2017-10-29T04:53:02.590Z,88.30
2017-10-29T04:55:30.051Z,88.40
2017-10-29T04:57:57.506Z,88.10
2017-10-29T05:00:24.967Z,87.90
2017-10-29T05:02:52.425Z,87.90
2017-10-29T05:05:19.847Z,87.80
2017-10-29T05:07:47.319Z,87.90
2017-10-29T05:10:14.790Z,87.70
2017-10-29T05:12:42.242Z,87.60
2017-10-29T05:15:09.683Z,87.50
2017-10-29T05:17:37.165Z,87.30
2017-10-29T05:20:04.622Z,87.20
2017-10-29T05:22:32.072Z,87.20
2017-10-29T05:24:59.518Z,87.20
2017-10-29T05:27:26.959Z,87.10
2017-10-29T05:29:54.432Z,87.10
2017-10-29T05:32:21.907Z,87.00
2017-10-29T05:34:49.364Z,87.10
2017-10-29T05:37:17.583Z,87.00
2017-10-29T05:39:45.812Z,87.00
2017-10-29T05:42:13.263Z,87.00
2017-10-29T05:44:40.703Z,86.90
2017-10-29T05:47:08.160Z,87.00
2017-10-29T05:49:35.603Z,86.80
2017-10-29T05:52:03.105Z,86.80
2017-10-29T05:54:30.561Z,86.80
2017-10-29T05:56:57.999Z,86.50
2017-10-29T05:59:25.552Z,86.30
2017-10-29T06:01:52.976Z,86.50
2017-10-29T06:04:21.204Z,86.10
2017-10-29T06:06:48.651Z,86.20
2017-10-29T06:09:16.112Z,85.20
2017-10-29T06:11:43.555Z,85.70
2017-10-29T06:14:11.036Z,85.70
2017-10-29T06:16:38.492Z,85.80
2017-10-29T06:19:05.936Z,85.70
2017-10-29T06:21:33.387Z,85.60
2017-10-29T06:24:00.826Z,85.40
2017-10-29T06:26:28.279Z,85.20
2017-10-29T06:28:55.722Z,85.20
2017-10-29T06:31:23.941Z,84.40
2017-10-29T06:33:51.387Z,84.40
2017-10-29T06:36:18.832Z,84.70
2017-10-29T06:38:46.293Z,83.40
2017-10-29T06:41:13.744Z,84.30
2017-10-29T06:43:41.235Z,84.10
2017-10-29T06:46:08.687Z,83.70
2017-10-29T06:48:36.144Z,83.70
2017-10-29T06:51:03.575Z,83.80
2017-10-29T06:53:31.058Z,83.70
2017-10-29T06:55:58.527Z,83.50
2017-10-29T06:58:26.115Z,83.40
2017-10-29T07:00:53.568Z,83.60
2017-10-29T07:03:21.780Z,81.20
2017-10-29T07:05:49.255Z,81.60
2017-10-29T07:08:16.707Z,81.60
2017-10-29T07:10:44.155Z,82.30
2017-10-29T07:13:11.643Z,82.30
2017-10-29T07:15:39.204Z,81.60
2017-10-29T07:18:06.659Z,81.60
2017-10-29T07:20:34.099Z,81.30
2017-10-29T07:23:01.576Z,79.30
2017-10-29T07:25:29.023Z,81.00
2017-10-29T07:27:56.591Z,81.20
2017-10-29T07:30:24.039Z,81.80
2017-10-29T07:32:51.487Z,81.00
2017-10-29T07:35:18.944Z,81.00
2017-10-29T07:37:46.406Z,80.80
2017-10-29T07:40:13.878Z,80.40
2017-10-29T07:42:41.343Z,80.60
2017-10-29T07:45:08.791Z,79.10
2017-10-29T07:47:36.239Z,78.60
2017-10-29T07:50:03.692Z,79.90
2017-10-29T07:52:31.137Z,79.80
2017-10-29T07:54:58.595Z,78.60
2017-10-29T07:57:26.094Z,77.40
2017-10-29T07:59:53.549Z,77.70
2017-10-29T08:02:20.997Z,78.80
2017-10-29T08:04:48.554Z,78.60
2017-10-29T08:07:15.994Z,78.10
2017-10-29T08:09:43.450Z,78.00
2017-10-29T08:12:10.901Z,78.30
2017-10-29T08:14:38.354Z,78.10
2017-10-29T08:17:05.800Z,76.00
2017-10-29T08:19:33.295Z,76.70
2017-10-29T08:22:00.748Z,74.60
2017-10-29T08:24:28.226Z,76.50
2017-10-29T08:26:55.672Z,74.30
2017-10-29T08:29:23.123Z,74.70
2017-10-29T08:31:50.583Z,75.60
2017-10-29T08:34:18.027Z,72.40
2017-10-29T08:36:45.483Z,73.10
2017-10-29T08:39:12.930Z,72.80
2017-10-29T08:41:40.396Z,74.30
2017-10-29T08:44:07.844Z,73.80
2017-10-29T08:46:35.301Z,74.20
2017-10-29T08:49:02.759Z,74.20
2017-10-29T08:51:30.218Z,73.10
2017-10-29T08:53:57.668Z,69.10
2017-10-29T08:56:25.227Z,70.90
2017-10-29T08:58:52.671Z,72.30
2017-10-29T09:01:20.127Z,71.60
2017-10-29T09:03:47.578Z,72.00
2017-10-29T09:06:15.045Z,72.30
2017-10-29T09:08:42.483Z,70.20
2017-10-29T09:11:10.723Z,71.50
2017-10-29T09:13:38.167Z,71.40
2017-10-29T09:16:05.639Z,68.10
2017-10-29T09:18:33.103Z,68.50
2017-10-29T09:21:00.550Z,71.00
2017-10-29T09:23:28.007Z,70.20
2017-10-29T09:25:56.288Z,68.50
2017-10-29T09:28:23.774Z,69.10
2017-10-29T09:30:51.207Z,69.70
2017-10-29T09:33:18.659Z,69.40
2017-10-29T09:35:46.119Z,70.10
2017-10-29T09:38:13.571Z,67.90
2017-10-29T09:40:41.022Z,68.90
2017-10-29T09:43:08.476Z,69.00
2017-10-29T09:45:35.927Z,68.40
2017-10-29T09:48:03.379Z,69.00
2017-10-29T09:50:30.828Z,69.50
2017-10-29T09:52:58.291Z,69.50
2017-10-29T09:55:25.737Z,69.10
2017-10-29T09:57:56.140Z,68.40
2017-10-29T10:00:23.655Z,68.70
2017-10-29T10:02:51.111Z,67.40
2017-10-29T10:05:18.563Z,67.70
2017-10-29T10:07:46.032Z,67.20
2017-10-29T10:10:13.474Z,68.10
2017-10-29T10:12:40.926Z,66.90
2017-10-29T10:15:08.388Z,67.50
2017-10-29T10:17:35.836Z,66.40
2017-10-29T10:20:03.296Z,67.70
2017-10-29T10:22:30.732Z,67.50
2017-10-29T10:24:58.193Z,66.60
2017-10-29T10:27:25.646Z,66.80
2017-10-29T10:29:53.094Z,67.60
2017-10-29T10:32:20.539Z,66.90
2017-10-29T10:34:47.996Z,64.30
2017-10-29T10:37:15.443Z,65.90
2017-10-29T10:39:43.663Z,65.80
2017-10-29T10:42:11.111Z,65.70
2017-10-29T10:44:38.567Z,65.30
2017-10-29T10:47:06.020Z,63.30
2017-10-29T10:49:33.473Z,65.70
2017-10-29T10:52:00.908Z,66.00
2017-10-29T10:54:28.359Z,64.70
2017-10-29T10:56:56.572Z,65.40
2017-10-29T10:59:24.027Z,65.40
2017-10-29T11:01:51.489Z,63.80
2017-10-29T11:04:18.935Z,65.40
2017-10-29T11:06:46.404Z,65.40
2017-10-29T11:09:13.860Z,65.60
2017-10-29T11:11:41.314Z,60.60
2017-10-29T11:14:08.771Z,64.20
2017-10-29T11:16:36.240Z,63.20
2017-10-29T11:19:03.695Z,61.60
2017-10-29T11:21:31.142Z,61.60
2017-10-29T11:23:58.606Z,63.50
2017-10-29T11:26:26.052Z,64.10
2017-10-29T11:28:53.487Z,64.50
2017-10-29T11:31:20.951Z,64.80
2017-10-29T11:33:48.390Z,65.00
2017-10-29T11:36:16.604Z,65.00
2017-10-29T11:38:44.054Z,65.00
2017-10-29T11:41:11.512Z,64.60
2017-10-29T11:43:38.959Z,64.60
2017-10-29T11:46:06.398Z,65.10
2017-10-29T11:48:33.855Z,65.60
2017-10-29T11:51:01.303Z,65.70
2017-10-29T11:53:29.526Z,66.00
2017-10-29T11:55:56.979Z,66.00
2017-10-29T11:58:24.428Z,66.90
2017-10-29T12:00:51.875Z,66.30
2017-10-29T12:03:19.327Z,65.80
2017-10-29T12:05:46.766Z,66.00
2017-10-29T12:08:14.991Z,65.70
2017-10-29T12:10:43.200Z,65.40
2017-10-29T12:13:10.651Z,65.40
2017-10-29T12:15:38.095Z,65.60
2017-10-29T12:18:05.554Z,65.30
2017-10-29T12:20:33.003Z,65.00
2017-10-29T12:23:00.463Z,65.40
2017-10-29T12:25:27.911Z,65.90
2017-10-29T12:27:55.377Z,65.60
2017-10-29T12:30:22.826Z,65.50
2017-10-29T12:32:50.300Z,64.60
2017-10-29T12:35:17.748Z,65.60
2017-10-29T12:37:45.191Z,63.70
2017-10-29T12:40:12.647Z,64.90
2017-10-29T12:42:40.098Z,64.50
2017-10-29T12:45:07.563Z,64.50
2017-10-29T12:47:35.008Z,64.00
2017-10-29T12:50:02.472Z,64.40
2017-10-29T12:52:29.926Z,64.60
2017-10-29T12:54:57.392Z,64.30
2017-10-29T12:57:24.836Z,64.30
2017-10-29T12:59:52.294Z,63.90
2017-10-29T13:02:19.730Z,62.20
2017-10-29T13:04:47.191Z,63.50
2017-10-29T13:07:14.635Z,63.20
2017-10-29T13:09:42.093Z,63.70
2017-10-29T13:12:10.302Z,65.00
2017-10-29T13:14:37.767Z,64.10
2017-10-29T13:17:05.199Z,64.20
2017-10-29T13:19:32.668Z,63.70
2017-10-29T13:22:00.119Z,63.90
2017-10-29T13:24:27.653Z,63.90
2017-10-29T13:26:55.107Z,63.30
2017-10-29T13:29:23.324Z,63.80
2017-10-29T13:31:50.783Z,63.80
2017-10-29T13:34:18.229Z,64.50
2017-10-29T13:36:45.678Z,62.80
2017-10-29T13:39:13.121Z,63.00
2017-10-29T13:41:40.566Z,63.70
2017-10-29T13:44:08.776Z,62.80
2017-10-29T13:46:36.233Z,62.80
2017-10-29T13:49:03.675Z,63.90
2017-10-29T13:51:31.170Z,64.60
2017-10-29T13:53:58.628Z,64.50
2017-10-29T13:56:26.082Z,64.00
2017-10-29T13:58:53.532Z,62.70
2017-10-29T14:01:20.987Z,63.30
2017-10-29T14:03:48.429Z,63.60
2017-10-29T14:06:15.911Z,63.10
2017-10-29T14:08:43.361Z,62.80
2017-10-29T14:11:10.819Z,63.70
2017-10-29T14:13:38.260Z,63.40
2017-10-29T14:16:05.703Z,63.70
2017-10-29T14:18:33.154Z,63.50
2017-10-29T14:21:00.596Z,63.80
2017-10-29T14:23:28.815Z,64.40
2017-10-29T14:25:56.264Z,64.30
2017-10-29T14:28:23.717Z,64.60
2017-10-29T14:30:51.160Z,64.70
2017-10-29T14:33:18.611Z,64.70
2017-10-29T14:35:46.061Z,64.90
2017-10-29T14:38:14.290Z,64.40
2017-10-29T14:40:41.735Z,64.40
2017-10-29T14:43:09.188Z,64.40
2017-10-29T14:45:36.633Z,64.80
2017-10-29T14:48:04.091Z,64.00
2017-10-29T14:50:31.531Z,64.60
2017-10-29T14:52:58.984Z,64.70
2017-10-29T14:55:26.426Z,64.40
2017-10-29T14:57:54.647Z,64.00
2017-10-29T15:00:22.100Z,63.90
2017-10-29T15:02:49.575Z,64.90
2017-10-29T15:05:17.023Z,64.10
2017-10-29T15:07:44.479Z,64.20
2017-10-29T15:10:11.938Z,64.20
2017-10-29T15:12:39.386Z,63.80
2017-10-29T15:15:06.840Z,63.70
2017-10-29T15:17:34.293Z,63.20
2017-10-29T15:20:01.740Z,63.80
2017-10-29T15:22:29.178Z,63.80
2017-10-29T15:24:57.396Z,63.60
2017-10-29T15:27:24.844Z,63.60
2017-10-29T15:29:52.300Z,63.40
2017-10-29T15:32:19.743Z,63.70
2017-10-29T15:34:47.194Z,63.50
2017-10-29T15:37:14.630Z,63.70
2017-10-29T15:39:42.853Z,63.70
2017-10-29T15:42:10.298Z,63.70
2017-10-29T15:44:37.746Z,63.70
2017-10-29T15:47:05.192Z,63.80
2017-10-29T15:49:32.647Z,63.70
2017-10-29T15:52:00.088Z,63.90
2017-10-29T15:54:28.307Z,63.70
2017-10-29T15:56:55.756Z,63.70
2017-10-29T15:59:23.202Z,63.80
2017-10-29T16:01:50.660Z,63.90
2017-10-29T16:04:18.103Z,63.90
2017-10-29T16:06:45.551Z,63.90
2017-10-29T16:09:13.779Z,63.90
2017-10-29T16:11:41.372Z,63.80
2017-10-29T16:14:08.806Z,63.90
2017-10-29T16:16:36.266Z,64.00
2017-10-29T16:19:03.711Z,64.10
2017-10-29T16:21:31.182Z,64.00
2017-10-29T16:23:58.633Z,63.80
2017-10-29T16:26:26.192Z,64.70
2017-10-29T16:28:53.631Z,64.20
2017-10-29T16:31:21.088Z,64.30
2017-10-29T16:33:48.541Z,64.20
2017-10-29T16:36:15.990Z,64.30
2017-10-29T16:38:43.440Z,64.30
2017-10-29T16:41:10.925Z,64.30
2017-10-29T16:43:38.372Z,64.30
2017-10-29T16:46:05.809Z,64.40
2017-10-29T16:48:33.261Z,64.30
2017-10-29T16:51:00.703Z,64.30
2017-10-29T16:53:28.926Z,64.50
2017-10-29T16:55:56.372Z,64.50
2017-10-29T16:58:23.829Z,64.60
2017-10-29T17:00:51.276Z,64.80
2017-10-29T17:03:18.737Z,64.80
2017-10-29T17:05:46.175Z,64.90
2017-10-29T17:08:14.385Z,65.10
2017-10-29T17:10:41.832Z,65.10
2017-10-29T17:13:09.290Z,65.10
2017-10-29T17:15:36.756Z,65.20
2017-10-29T17:18:04.197Z,65.40
2017-10-29T17:20:31.636Z,65.50
2017-10-29T17:22:59.091Z,65.60
2017-10-29T17:25:26.536Z,65.70
2017-10-29T17:27:54.759Z,65.80
2017-10-29T17:30:22.201Z,65.80
2017-10-29T17:32:49.642Z,66.10
2017-10-29T17:35:17.120Z,66.20
2017-10-29T17:37:44.562Z,66.20
2017-10-29T17:40:12.005Z,66.30
2017-10-29T17:42:39.451Z,66.30
2017-10-29T17:45:06.900Z,66.20
2017-10-29T17:47:35.119Z,66.50
2017-10-29T17:50:02.579Z,66.40
2017-10-29T17:52:30.019Z,66.50
2017-10-29T17:54:57.468Z,66.70
2017-10-29T17:57:24.920Z,66.60
2017-10-29T17:59:53.136Z,66.60
2017-10-29T18:02:20.587Z,66.60
2017-10-29T18:04:48.043Z,66.50
2017-10-29T18:07:15.498Z,66.50
2017-10-29T18:09:42.954Z,66.60
2017-10-29T18:12:10.398Z,66.70
2017-10-29T18:14:37.839Z,66.70
2017-10-29T18:17:05.283Z,66.70
2017-10-29T18:19:33.522Z,66.60
2017-10-29T18:22:00.967Z,66.60
2017-10-29T18:24:28.415Z,66.60
2017-10-29T18:26:55.998Z,66.60
2017-10-29T18:29:23.439Z,67.10
2017-10-29T18:31:50.891Z,66.60
2017-10-29T18:34:18.340Z,66.50
2017-10-29T18:36:45.825Z,66.20
2017-10-29T18:39:13.259Z,67.30
2017-10-29T18:41:40.727Z,66.30
2017-10-29T18:44:08.175Z,66.70
2017-10-29T18:46:35.650Z,66.80
2017-10-29T18:49:03.082Z,66.80
2017-10-29T18:51:30.545Z,66.80
2017-10-29T18:53:57.997Z,66.40
2017-10-29T18:56:25.480Z,66.70
2017-10-29T18:58:52.939Z,67.00
2017-10-29T19:01:20.409Z,66.90
2017-10-29T19:03:47.853Z,67.00
2017-10-29T19:06:15.411Z,67.10
2017-10-29T19:08:42.862Z,67.20
2017-10-29T19:11:10.430Z,68.40
2017-10-29T19:13:37.883Z,68.50
2017-10-29T19:16:05.339Z,68.50
2017-10-29T19:18:32.790Z,68.60
2017-10-29T19:21:00.240Z,68.70
2017-10-29T19:23:27.720Z,68.90
2017-10-29T19:25:55.150Z,68.80
2017-10-29T19:28:22.607Z,69.10
2017-10-29T19:30:50.083Z,69.20
2017-10-29T19:33:17.551Z,69.20
2017-10-29T19:35:44.987Z,69.20
2017-10-29T19:38:12.439Z,69.20
2017-10-29T19:40:39.942Z,69.50
2017-10-29T19:43:08.159Z,70.50
2017-10-29T19:45:35.587Z,69.80
2017-10-29T19:48:03.810Z,70.10
2017-10-29T19:50:31.247Z,70.00
2017-10-29T19:52:58.726Z,70.40
2017-10-29T19:55:26.174Z,70.60
2017-10-29T19:57:53.616Z,70.60
2017-10-29T20:00:21.046Z,70.80
2017-10-29T20:02:49.259Z,70.70
2017-10-29T20:05:16.704Z,70.60
2017-10-29T20:07:44.138Z,70.60
2017-10-29T20:10:12.361Z,70.70
2017-10-29T20:12:40.043Z,70.50
2017-10-29T20:15:07.601Z,70.50
2017-10-29T20:17:35.043Z,70.60
2017-10-29T20:20:02.499Z,70.80
2017-10-29T20:22:29.940Z,70.90
2017-10-29T20:24:57.383Z,70.90
2017-10-29T20:27:24.823Z,70.80
2017-10-29T20:29:53.032Z,71.00
2017-10-29T20:32:20.487Z,70.90
2017-10-29T20:34:47.937Z,71.00
2017-10-29T20:37:15.371Z,71.20
2017-10-29T20:39:42.824Z,71.40
2017-10-29T20:42:10.284Z,71.40
2017-10-29T20:44:37.731Z,71.40
2017-10-29T20:47:05.969Z,71.50
2017-10-29T20:49:33.428Z,71.40
2017-10-29T20:52:00.880Z,71.30
2017-10-29T20:54:28.324Z,71.40
2017-10-29T20:56:55.777Z,71.50
2017-10-29T20:59:23.223Z,71.50
2017-10-29T21:01:50.708Z,71.40
2017-10-29T21:04:18.155Z,71.30
2017-10-29T21:06:45.625Z,71.80
2017-10-29T21:09:13.071Z,71.80
2017-10-29T21:11:40.535Z,71.90
2017-10-29T21:14:07.958Z,72.10
2017-10-29T21:16:35.431Z,72.00
2017-10-29T21:19:02.854Z,72.20
2017-10-29T21:21:31.066Z,72.00
2017-10-29T21:23:58.503Z,72.00
2017-10-29T21:26:26.235Z,72.10
2017-10-29T21:28:54.474Z,72.00
2017-10-29T21:31:21.927Z,72.00
2017-10-29T21:33:49.357Z,72.10
2017-10-29T21:36:16.803Z,72.00
2017-10-29T21:38:44.239Z,72.20
2017-10-29T21:41:12.456Z,72.10
2017-10-29T21:43:39.935Z,72.10
2017-10-29T21:46:07.386Z,72.10
2017-10-29T21:48:34.834Z,72.10
2017-10-29T21:51:02.276Z,72.20
2017-10-29T21:53:29.766Z,72.20
2017-10-29T21:55:57.215Z,72.30
2017-10-29T21:58:24.684Z,72.20
2017-10-29T22:00:52.132Z,72.30
2017-10-29T22:03:19.611Z,72.30
2017-10-29T22:05:47.051Z,72.40
2017-10-29T22:08:14.495Z,72.40
2017-10-29T22:10:41.967Z,72.40
2017-10-29T22:13:09.417Z,72.40
2017-10-29T22:15:36.867Z,72.50
2017-10-29T22:18:04.317Z,72.70
2017-10-29T22:20:31.796Z,72.70
2017-10-29T22:22:59.237Z,72.50
2017-10-29T22:25:26.684Z,72.60
2017-10-29T22:27:54.138Z,72.70
2017-10-29T22:30:21.627Z,72.70
2017-10-29T22:32:49.071Z,72.70
2017-10-29T22:35:16.520Z,72.70
2017-10-29T22:37:43.996Z,72.80
2017-10-29T22:40:11.434Z,72.70
2017-10-29T22:42:38.895Z,72.90
2017-10-29T22:45:06.330Z,72.90
2017-10-29T22:47:33.779Z,73.00
2017-10-29T22:50:01.231Z,73.20
2017-10-29T22:52:29.446Z,73.40
2017-10-29T22:54:56.903Z,73.40
2017-10-29T22:57:24.335Z,73.40
2017-10-29T22:59:51.808Z,73.50
2017-10-29T23:02:19.243Z,73.30
2017-10-29T23:04:58.782Z,73.20
2017-10-29T23:07:26.235Z,73.20
2017-10-29T23:09:53.683Z,73.20
2017-10-29T23:12:21.985Z,73.20
2017-10-29T23:14:49.407Z,73.20
2017-10-29T23:17:17.711Z,73.30
2017-10-29T23:19:45.163Z,73.30
2017-10-29T23:22:12.707Z,73.20
2017-10-29T23:24:40.919Z,73.30
2017-10-29T23:27:08.397Z,73.30
2017-10-29T23:29:35.855Z,73.40
2017-10-29T23:32:03.432Z,73.40
2017-10-29T23:34:30.958Z,73.40
2017-10-29T23:36:58.415Z,73.40
2017-10-29T23:39:25.916Z,73.30
2017-10-29T23:41:53.468Z,73.30
2017-10-29T23:44:20.925Z,73.40
2017-10-29T23:46:48.447Z,73.50
2017-10-29T23:49:16.100Z,73.50
2017-10-29T23:51:43.600Z,73.50
2017-10-29T23:54:11.076Z,73.50
2017-10-29T23:56:39.306Z,74.00
2017-10-29T23:59:06.774Z,73.40
